Time;durP1;ratioP1;P1;durP2;ratioP2;P2;SDS_P1;SDS_P2;PMS_P1;PMS_P2;Temp;Humidity;BMP_temperature;BMP_pressure;BME280_temperature;BME280_humidity;BME280_pressure;Samples;Min_cycle;Max_cycle;Signal;HPM_P1;HPM_P2
2021/07/22 00:00:27;;;;;;;;;;;;;;;;;;4924301;28;19930;-82
2021/07/22 00:03:09;;;;;;;;;;;;;;;;;;4968227;28;19948;-82
2021/07/22 00:06:14;;;;;;;;;;;;;;;;;;4973584;28;19930;-82
2021/07/22 00:08:50;;;;;;;;;;;;;;;;;;4970265;28;19933;-82
2021/07/22 00:11:26;;;;;;;;;;;;;;;;;;4984616;28;19934;-82
2021/07/22 00:13:54;;;;;;;;;;;;;;;;;;4971497;28;19933;-81
2021/07/22 00:16:23;;;;;;;;;;;;;;;;;;4980828;28;19930;-83
2021/07/22 00:18:57;;;;;;;;;;;;;;;;;;4971459;28;19945;-82
2021/07/22 00:21:26;;;;;;;;;;;;;;;;;;4985507;28;19937;-81
2021/07/22 00:23:56;;;;;;;;;;;;;;;;;;5007329;28;19926;-81
2021/07/22 00:26:24;;;;;;;;;;;;;;;;;;4971147;28;19926;-82
2021/07/22 00:28:52;;;;;;;;;;;;;;;;;;4991223;28;20395;-81
2021/07/22 00:31:23;;;;;;;;;;;;;;;;;;4987974;28;19938;-81
2021/07/22 00:33:52;;;;;;;;;;;;;;;;;;4987517;28;19933;-81
2021/07/22 00:36:20;;;;;;;;;;;;;;;;;;4973618;28;19926;-83
2021/07/22 00:38:49;;;;;;;;;;;;;;;;;;4973458;28;19936;-83
2021/07/22 00:41:19;;;;;;;;;;;;;;;;;;4961439;28;19937;-84
2021/07/22 00:43:47;;;;;;;;;;;;;;;;;;4982916;28;19929;-83
2021/07/22 00:46:15;;;;;;;;;;;;;;;;;;4978302;28;19926;-84
2021/07/22 00:48:46;;;;;;;;;;;;;;;;;;4981510;28;19933;-82
2021/07/22 00:51:16;;;;;;;;;;;;;;;;;;4998449;28;19926;-83
2021/07/22 00:53:44;;;;;;;;;;;;;;;;;;4984672;28;20404;-81
2021/07/22 00:56:13;;;;;;;;;;;;;;;;;;4975913;28;19933;-82
2021/07/22 00:58:42;;;;;;;;;;;;;;;;;;4990771;28;19933;-82
2021/07/22 01:01:12;;;;;;;;;;;;;;;;;;4986225;28;19933;-81
2021/07/22 01:03:44;;;;;;;;;;;;;;;;;;4966763;28;19933;-82
2021/07/22 01:06:12;;;;;;;;;;;;;;;;;;4973175;28;19931;-81
2021/07/22 01:08:41;;;;;;;;;;;;;;;;;;4988390;28;19926;-82
2021/07/22 01:11:27;;;;;;;;;;;;;;;;;;4976912;28;19937;-82
2021/07/22 01:13:58;;;;;;;;;;;;;;;;;;4979573;28;19925;-84
2021/07/22 01:16:26;;;;;;;;;;;;;;;;;;4983213;28;19925;-82
2021/07/22 01:18:55;;;;;;;;;;;;;;;;;;4973960;28;20300;-81
2021/07/22 01:21:25;;;;;;;;;;;;;;;;;;4975726;28;19948;-81
2021/07/22 01:23:55;;;;;;;;;;;;;;;;;;5003516;28;19926;-82
2021/07/22 01:26:33;;;;;;;;;;;;;;;;;;4997789;28;20338;-83
2021/07/22 01:29:14;;;;;;;;;;;;;;;;;;4983320;28;19932;-81
2021/07/22 01:31:43;;;;;;;;;;;;;;;;;;4990991;28;19925;-82
2021/07/22 01:34:11;;;;;;;;;;;;;;;;;;4979573;28;19929;-83
2021/07/22 01:36:42;;;;;;;;;;;;;;;;;;4983933;28;19933;-81
2021/07/22 01:39:10;;;;;;;;;;;;;;;;;;4996739;28;19926;-82
2021/07/22 01:41:40;;;;;;;;;;;;;;;;;;4994280;28;19929;-83
2021/07/22 01:44:09;;;;;;;;;;;;;;;;;;5011813;28;20331;-83
2021/07/22 01:46:38;;;;;;;;;;;;;;;;;;4959860;28;19930;-84
2021/07/22 01:49:07;;;;;;;;;;;;;;;;;;4983450;28;19926;-82
2021/07/22 01:51:36;;;;;;;;;;;;;;;;;;4967233;28;19932;-84
2021/07/22 01:54:10;;;;;;;;;;;;;;;;;;4972259;28;20320;-84
2021/07/22 01:56:39;;;;;;;;;;;;;;;;;;4977626;28;19934;-83
2021/07/22 01:59:08;;;;;;;;;;;;;;;;;;4972484;28;20007;-83
2021/07/22 02:01:38;;;;;;;;;;;;;;;;;;4995561;28;19933;-84
2021/07/22 02:04:26;;;;;;;;;;;;;;;;;;4968437;28;19934;-85
2021/07/22 02:06:55;;;;;;;;;;;;;;;;;;4955091;28;19932;-81
2021/07/22 02:09:25;;;;;;;;;;;;;;;;;;4955688;28;20308;-81
2021/07/22 02:11:54;;;;;;;;;;;;;;;;;;4966197;28;19926;-81
2021/07/22 02:14:23;;;;;;;;;;;;;;;;;;4985924;28;20403;-83
2021/07/22 02:16:53;;;;;;;;;;;;;;;;;;4986672;28;19933;-82
2021/07/22 02:19:23;;;;;;;;;;;;;;;;;;4982382;28;19933;-84
2021/07/22 02:21:57;;;;;;;;;;;;;;;;;;4965466;28;19938;-83
2021/07/22 02:24:27;;;;;;;;;;;;;;;;;;4981235;28;19927;-80
2021/07/22 02:27:03;;;;;;;;;;;;;;;;;;4984433;28;19926;-81
2021/07/22 02:29:33;;;;;;;;;;;;;;;;;;4979398;28;19925;-81
2021/07/22 02:32:02;;;;;;;;;;;;;;;;;;4969715;28;19926;-82
2021/07/22 02:34:31;;;;;;;;;;;;;;;;;;4989456;28;19930;-82
2021/07/22 02:37:06;;;;;;;;;;;;;;;;;;4967141;28;19956;-84
2021/07/22 02:40:08;;;;;;;;;;;;;;;;;;4968445;28;19937;-85
2021/07/22 02:42:38;;;;;;;;;;;;;;;;;;4996719;28;19918;-85
2021/07/22 02:45:11;;;;;;;;;;;;;;;;;;4989864;28;19926;-83
2021/07/22 02:47:41;;;;;;;;;;;;;;;;;;4977719;28;19929;-81
2021/07/22 02:50:10;;;;;;;;;;;;;;;;;;4967787;28;20162;-84
2021/07/22 02:52:40;;;;;;;;;;;;;;;;;;4980858;28;19926;-84
2021/07/22 02:55:11;;;;;;;;;;;;;;;;;;4971543;28;19926;-84
2021/07/22 02:57:40;;;;;;;;;;;;;;;;;;5001404;28;19932;-82
2021/07/22 03:00:09;;;;;;;;;;;;;;;;;;4978904;28;20307;-82
2021/07/22 03:02:38;;;;;;;;;;;;;;;;;;4975449;28;19926;-83
2021/07/22 03:05:08;;;;;;;;;;;;;;;;;;4981510;28;19930;-83
2021/07/22 03:07:38;;;;;;;;;;;;;;;;;;4983424;28;20384;-82
2021/07/22 03:10:08;;;;;;;;;;;;;;;;;;4978565;28;19926;-83
2021/07/22 03:12:38;;;;;;;;;;;;;;;;;;4994447;28;19930;-83
2021/07/22 03:15:07;;;;;;;;;;;;;;;;;;4972322;28;20401;-83
2021/07/22 03:17:40;;;;;;;;;;;;;;;;;;4975328;28;19934;-83
2021/07/22 03:20:10;;;;;;;;;;;;;;;;;;4973636;28;19926;-83
2021/07/22 03:22:45;;;;;;;;;;;;;;;;;;4979731;28;20392;-84
2021/07/22 03:25:18;;;;;;;;;;;;;;;;;;4984503;28;19926;-83
2021/07/22 03:28:07;;;;;;;;;;;;;;;;;;4989855;28;19933;-84
2021/07/22 03:30:54;;;;;;;;;;;;;;;;;;4981787;28;19933;-84
2021/07/22 03:33:35;;;;;;;;;;;;;;;;;;4991589;28;19926;-82
2021/07/22 03:36:16;;;;;;;;;;;;;;;;;;4978829;28;20239;-83
2021/07/22 03:39:07;;;;;;;;;;;;;;;;;;4969432;28;19926;-83
2021/07/22 03:41:35;;;;;;;;;;;;;;;;;;4968764;28;19926;-81
2021/07/22 03:44:18;;;;;;;;;;;;;;;;;;4983546;28;19937;-83
2021/07/22 03:46:48;;;;;;;;;;;;;;;;;;4954172;28;19930;-82
2021/07/22 03:49:18;;;;;;;;;;;;;;;;;;4975743;28;19933;-84
2021/07/22 03:51:49;;;;;;;;;;;;;;;;;;4985414;28;19934;-82
2021/07/22 03:54:18;;;;;;;;;;;;;;;;;;4973552;28;19926;-81
2021/07/22 03:56:46;;;;;;;;;;;;;;;;;;4954838;28;19934;-84
2021/07/22 03:59:21;;;;;;;;;;;;;;;;;;4976453;28;19926;-85
2021/07/22 04:01:54;;;;;;;;;;;;;;;;;;4989190;28;19926;-85
2021/07/22 04:04:27;;;;;;;;;;;;;;;;;;4982557;28;19932;-84
2021/07/22 04:07:00;;;;;;;;;;;;;;;;;;4969063;28;19932;-84
2021/07/22 04:10:10;;;;;;;;;;;;;;;;;;4969534;28;19926;-84
2021/07/22 04:13:03;;;;;;;;;;;;;;;;;;4970791;28;19936;-85
2021/07/22 04:15:44;;;;;;;;;;;;;;;;;;4976647;28;19929;-81
2021/07/22 04:18:36;;;;;;;;;;;;;;;;;;4941300;28;19930;-85
2021/07/22 04:21:20;;;;;;;;;;;;;;;;;;4970371;28;20396;-81
2021/07/22 04:23:56;;;;;;;;;;;;;;;;;;4974535;28;19933;-81
2021/07/22 04:26:50;;;;;;;;;;;;;;;;;;4954824;28;19930;-84
2021/07/22 04:29:23;;;;;;;;;;;;;;;;;;4974721;28;19952;-81
2021/07/22 04:31:54;;;;;;;;;;;;;;;;;;4968046;28;19930;-84
2021/07/22 04:34:38;;;;;;;;;;;;;;;;;;4981377;28;20339;-81
2021/07/22 04:37:19;;;;;;;;;;;;;;;;;;4983105;28;19926;-81
2021/07/22 04:40:13;;;;;;;;;;;;;;;;;;4958412;28;20311;-82
2021/07/22 04:43:11;;;;;;;;;;;;;;;;;;4992717;28;19932;-84
2021/07/22 04:45:49;;;;;;;;;;;;;;;;;;4983119;28;19933;-83
2021/07/22 04:48:42;;;;;;;;;;;;;;;;;;4994610;28;19938;-81
2021/07/22 04:51:21;;;;;;;;;;;;;;;;;;4980125;28;20164;-85
2021/07/22 04:53:55;;;;;;;;;;;;;;;;;;4971205;28;19949;-84
2021/07/22 04:56:24;;;;;;;;;;;;;;;;;;4985072;28;19925;-82
2021/07/22 04:58:53;;;;;;;;;;;;;;;;;;4972082;28;19927;-83
2021/07/22 05:01:25;;;;;;;;;;;;;;;;;;4978383;28;20395;-85
2021/07/22 05:03:55;;;;;;;;;;;;;;;;;;4968170;28;19930;-82
2021/07/22 05:06:36;;;;;;;;;;;;;;;;;;4969392;28;19926;-84
2021/07/22 05:09:29;;;;;;;;;;;;;;;;;;4974318;28;19926;-84
2021/07/22 05:12:18;;;;;;;;;;;;;;;;;;4940565;28;19926;-82
2021/07/22 05:15:00;;;;;;;;;;;;;;;;;;4984820;28;19937;-84
2021/07/22 05:18:07;;;;;;;;;;;;;;;;;;4904992;29;19927;-84
2021/07/22 05:21:11;;;;;;;;;;;;;;;;;;4892568;29;19934;-86
2021/07/22 05:23:52;;;;;;;;;;;;;;;;;;4959090;28;19933;-84
2021/07/22 05:26:28;;;;;;;;;;;;;;;;;;4957244;28;19941;-83
2021/07/22 05:29:10;;;;;;;;;;;;;;;;;;4969417;28;19937;-84
2021/07/22 05:31:49;;;;;;;;;;;;;;;;;;4967063;28;19925;-83
2021/07/22 05:34:24;;;;;;;;;;;;;;;;;;4990423;28;19926;-83
2021/07/22 05:37:27;;;;;;;;;;;;;;;;;;4967282;28;19936;-83
2021/07/22 05:39:59;;;;;;;;;;;;;;;;;;4969718;28;19914;-83
2021/07/22 05:42:27;;;;;;;;;;;;;;;;;;4998121;28;19929;-81
2021/07/22 05:44:56;;;;;;;;;;;;;;;;;;4975872;28;22280;-84
2021/07/22 05:47:24;;;;;;;;;;;;;;;;;;4972246;28;19930;-82
2021/07/22 05:49:52;;;;;;;;;;;;;;;;;;4965284;28;19941;-83
2021/07/22 05:52:21;;;;;;;;;;;;;;;;;;4967120;28;19929;-84
2021/07/22 05:54:50;;;;;;;;;;;;;;;;;;4977397;28;19926;-81
2021/07/22 05:57:20;;;;;;;;;;;;;;;;;;4991622;28;19925;-81
2021/07/22 05:59:48;;;;;;;;;;;;;;;;;;4966438;28;19959;-84
2021/07/22 06:02:16;;;;;;;;;;;;;;;;;;4999131;28;19925;-83
2021/07/22 06:04:45;;;;;;;;;;;;;;;;;;4970858;28;19937;-82
2021/07/22 06:07:13;;;;;;;;;;;;;;;;;;4987709;28;20012;-83
2021/07/22 06:09:42;;;;;;;;;;;;;;;;;;4973401;28;19977;-84
2021/07/22 06:12:12;;;;;;;;;;;;;;;;;;4974833;28;19926;-82
2021/07/22 06:14:59;;;;;;;;;;;;;;;;;;4975436;28;19933;-82
2021/07/22 06:17:27;;;;;;;;;;;;;;;;;;4968194;28;19926;-84
2021/07/22 06:19:56;;;;;;;;;;;;;;;;;;4951262;28;19926;-83
2021/07/22 06:22:24;;;;;;;;;;;;;;;;;;4967688;28;19926;-84
2021/07/22 06:24:52;;;;;;;;;;;;;;;;;;4986384;28;20152;-84
2021/07/22 06:27:22;;;;;;;;;;;;;;;;;;4981925;28;19934;-83
2021/07/22 06:29:50;;;;;;;;;;;;;;;;;;4983006;28;19926;-83
2021/07/22 06:32:19;;;;;;;;;;;;;;;;;;4981099;28;19933;-83
2021/07/22 06:34:47;;;;;;;;;;;;;;;;;;4981899;28;19933;-82
2021/07/22 06:37:16;;;;;;;;;;;;;;;;;;5000264;28;19926;-84
2021/07/22 06:39:56;;;;;;;;;;;;;;;;;;4968643;28;19932;-83
2021/07/22 06:42:26;;;;;;;;;;;;;;;;;;4989187;28;19926;-84
2021/07/22 06:44:54;;;;;;;;;;;;;;;;;;4984252;28;19926;-82
2021/07/22 06:47:22;;;;;;;;;;;;;;;;;;4970908;28;19948;-82
2021/07/22 06:49:51;;;;;;;;;;;;;;;;;;4974910;28;19926;-84
2021/07/22 06:52:19;;;;;;;;;;;;;;;;;;4979718;28;19933;-84
2021/07/22 06:54:48;;;;;;;;;;;;;;;;;;4998605;28;19925;-82
2021/07/22 06:57:16;;;;;;;;;;;;;;;;;;4962009;28;19930;-82
2021/07/22 06:59:45;;;;;;;;;;;;;;;;;;4972335;28;19925;-82
2021/07/22 07:02:14;;;;;;;;;;;;;;;;;;4965019;28;20319;-81
2021/07/22 07:04:42;;;;;;;;;;;;;;;;;;4961341;28;19926;-82
2021/07/22 07:07:11;;;;;;;;;;;;;;;;;;4987634;28;19939;-83
2021/07/22 07:09:40;;;;;;;;;;;;;;;;;;4955644;28;19941;-82
2021/07/22 07:12:09;;;;;;;;;;;;;;;;;;4966529;28;19929;-83
2021/07/22 07:14:41;;;;;;;;;;;;;;;;;;4973181;28;19948;-81
2021/07/22 07:17:10;;;;;;;;;;;;;;;;;;4972296;28;19926;-82
2021/07/22 07:19:48;;;;;;;;;;;;;;;;;;4976067;28;19930;-82
2021/07/22 07:22:18;;;;;;;;;;;;;;;;;;4971773;28;20402;-82
2021/07/22 07:24:47;;;;;;;;;;;;;;;;;;5000482;28;19936;-82
2021/07/22 07:27:15;;;;;;;;;;;;;;;;;;4981578;28;20383;-81
2021/07/22 07:29:44;;;;;;;;;;;;;;;;;;4993705;28;19937;-81
2021/07/22 07:32:14;;;;;;;;;;;;;;;;;;4996856;28;19926;-82
2021/07/22 07:34:43;;;;;;;;;;;;;;;;;;4966075;28;19926;-81
2021/07/22 07:37:11;;;;;;;;;;;;;;;;;;4978048;28;19926;-81
2021/07/22 07:43:05;;;;;;;;;;;;;;;;;;4925761;29;19933;-82
2021/07/22 07:45:36;;;;;;;;;;;;;;;;;;4949847;23;19926;-82
2021/07/22 07:48:06;;;;;;;;;;;;;;;;;;4964456;28;19934;-82
2021/07/22 07:50:35;;;;;;;;;;;;;;;;;;4981292;28;19930;-83
2021/07/22 07:53:10;;;;;;;;;;;;;;;;;;4952019;28;19934;-82
2021/07/22 07:55:39;;;;;;;;;;;;;;;;;;4937092;28;20033;-82
2021/07/22 07:58:07;;;;;;;;;;;;;;;;;;4978018;28;19926;-82
2021/07/22 08:00:36;;;;;;;;;;;;;;;;;;4975064;28;19984;-82
2021/07/22 08:03:06;;;;;;;;;;;;;;;;;;4960688;28;19926;-82
2021/07/22 08:05:40;;;;;;;;;;;;;;;;;;4977884;28;20332;-82
2021/07/22 08:08:20;;;;;;;;;;;;;;;;;;4958799;28;20328;-82
2021/07/22 08:10:48;;;;;;;;;;;;;;;;;;4961933;28;20413;-82
2021/07/22 08:13:17;;;;;;;;;;;;;;;;;;4958607;28;19930;-82
2021/07/22 08:15:45;;;;;;;;;;;;;;;;;;4946559;28;19930;-83
2021/07/22 08:18:16;;;;;;;;;;;;;;;;;;4953554;28;19938;-83
2021/07/22 08:20:44;;;;;;;;;;;;;;;;;;4961827;28;19933;-82
2021/07/22 08:23:13;;;;;;;;;;;;;;;;;;4957777;28;20300;-82
2021/07/22 08:25:42;;;;;;;;;;;;;;;;;;4955009;28;19934;-83
2021/07/22 08:28:11;;;;;;;;;;;;;;;;;;4967725;28;19926;-82
2021/07/22 08:30:40;;;;;;;;;;;;;;;;;;4957832;28;19999;-82
2021/07/22 08:33:08;;;;;;;;;;;;;;;;;;4963918;28;19926;-83
2021/07/22 08:35:38;;;;;;;;;;;;;;;;;;4984814;28;19926;-83
2021/07/22 08:38:06;;;;;;;;;;;;;;;;;;4960171;28;19926;-82
2021/07/22 08:40:35;;;;;;;;;;;;;;;;;;4964540;28;20289;-82
2021/07/22 08:43:05;;;;;;;;;;;;;;;;;;4936420;28;19975;-81
2021/07/22 08:45:33;;;;;;;;;;;;;;;;;;4942125;28;19926;-81
2021/07/22 08:48:01;;;;;;;;;;;;;;;;;;4955661;28;19937;-82
2021/07/22 08:50:29;;;;;;;;;;;;;;;;;;4946427;28;19941;-81
2021/07/22 08:52:59;;;;;;;;;;;;;;;;;;4955797;28;19934;-81
2021/07/22 08:55:27;;;;;;;;;;;;;;;;;;4935083;28;19941;-80
2021/07/22 08:57:55;;;;;;;;;;;;;;;;;;4954225;28;20319;-79
2021/07/22 09:00:24;;;;;;;;;;;;;;;;;;4968678;28;19949;-80
2021/07/22 09:02:52;;;;;;;;;;;;;;;;;;4926578;28;19930;-81
2021/07/22 09:05:20;;;;;;;;;;;;;;;;;;4941682;28;19934;-80
2021/07/22 09:07:48;;;;;;;;;;;;;;;;;;4947580;28;19936;-81
2021/07/22 09:10:21;;;;;;;;;;;;;;;;;;4953575;28;19926;-81
2021/07/22 09:12:51;;;;;;;;;;;;;;;;;;4947921;28;19934;-80
2021/07/22 09:15:24;;;;;;;;;;;;;;;;;;4974656;28;20418;-81
2021/07/22 09:18:20;;;;;;;;;;;;;;;;;;4959681;28;20315;-81
2021/07/22 09:20:48;;;;;;;;;;;;;;;;;;4967317;28;19934;-81
2021/07/22 09:23:20;;;;;;;;;;;;;;;;;;4972571;28;19934;-81
2021/07/22 09:25:51;;;;;;;;;;;;;;;;;;4946491;28;19933;-81
2021/07/22 09:28:26;;;;;;;;;;;;;;;;;;4974529;28;19930;-80
2021/07/22 09:30:55;;;;;;;;;;;;;;;;;;4949670;28;19933;-80
2021/07/22 09:33:33;;;;;;;;;;;;;;;;;;4946405;28;19933;-80
2021/07/22 09:36:01;;;;;;;;;;;;;;;;;;4962802;28;19926;-80
2021/07/22 09:38:30;;;;;;;;;;;;;;;;;;4952056;28;19926;-79
2021/07/22 09:40:59;;;;;;;;;;;;;;;;;;4959162;28;20179;-80
2021/07/22 09:43:38;;;;;;;;;;;;;;;;;;4958905;28;19926;-80
2021/07/22 09:46:07;;;;;;;;;;;;;;;;;;4944720;28;19926;-80
2021/07/22 09:48:36;;;;;;;;;;;;;;;;;;4962789;28;20422;-79
2021/07/22 09:51:05;;;;;;;;;;;;;;;;;;4955485;28;19934;-80
2021/07/22 09:53:33;;;;;;;;;;;;;;;;;;4961159;28;19933;-79
2021/07/22 09:56:03;;;;;;;;;;;;;;;;;;4956742;28;19927;-79
2021/07/22 09:58:32;;;;;;;;;;;;;;;;;;4962950;28;19934;-79
2021/07/22 10:01:04;;;;;;;;;;;;;;;;;;4952509;28;19933;-79
2021/07/22 10:04:02;;;;;;;;;;;;;;;;;;4954808;28;19926;-83
2021/07/22 10:10:02;;;;;;;;;;;;;;;;;;4960138;28;19926;-80
2021/07/22 10:13:00;;;;;;;;;;;;;;;;;;4939104;28;19926;-81
2021/07/22 10:15:30;;;;;;;;;;;;;;;;;;4946664;28;19934;-79
2021/07/22 10:17:59;;;;;;;;;;;;;;;;;;4956718;28;20296;-79
2021/07/22 10:20:29;;;;;;;;;;;;;;;;;;4942841;28;19931;-79
2021/07/22 10:22:57;;;;;;;;;;;;;;;;;;4953941;28;19934;-79
2021/07/22 10:25:26;;;;;;;;;;;;;;;;;;4943082;28;20015;-79
2021/07/22 10:27:54;;;;;;;;;;;;;;;;;;4941358;28;19941;-79
2021/07/22 10:30:25;;;;;;;;;;;;;;;;;;4942152;28;20289;-79
2021/07/22 10:32:53;;;;;;;;;;;;;;;;;;4940301;28;19934;-84
2021/07/22 10:35:22;;;;;;;;;;;;;;;;;;4972375;28;20406;-82
2021/07/22 10:38:10;;;;;;;;;;;;;;;;;;4956571;28;19937;-82
2021/07/22 10:40:45;;;;;;;;;;;;;;;;;;4949732;28;20608;-82
2021/07/22 10:43:35;;;;;;;;;;;;;;;;;;4938246;28;19926;-82
2021/07/22 10:46:05;;;;;;;;;;;;;;;;;;4949555;28;19926;-83
2021/07/22 10:48:34;;;;;;;;;;;;;;;;;;4930925;28;19930;-83
2021/07/22 10:51:03;;;;;;;;;;;;;;;;;;4947744;28;19937;-82
2021/07/22 10:53:48;;;;;;;;;;;;;;;;;;4954507;28;19941;-83
2021/07/22 10:56:47;;;;;;;;;;;;;;;;;;4951429;28;19947;-83
2021/07/22 10:59:16;;;;;;;;;;;;;;;;;;4945657;28;19927;-83
2021/07/22 11:01:57;;;;;;;;;;;;;;;;;;4950083;28;19926;-83
2021/07/22 11:04:46;;;;;;;;;;;;;;;;;;4937169;28;19926;-82
2021/07/22 11:07:18;;;;;;;;;;;;;;;;;;4955868;28;19933;-83
2021/07/22 11:09:59;;;;;;;;;;;;;;;;;;4964052;28;19933;-83
2021/07/22 11:12:46;;;;;;;;;;;;;;;;;;4956145;28;19941;-82
2021/07/22 11:15:33;;;;;;;;;;;;;;;;;;4961140;28;19925;-82
2021/07/22 11:18:03;;;;;;;;;;;;;;;;;;4931752;28;19934;-83
2021/07/22 11:20:36;;;;;;;;;;;;;;;;;;4948872;28;19934;-83
2021/07/22 11:27:06;;;;;;;;;;;;;;;;;;4945753;28;19934;-83
2021/07/22 11:34:50;;;;;;;;;;;;;;;;;;;;;
2021/07/22 11:41:27;;;;;;;;;;;;;;;;;;4946228;29;19927;-83
2021/07/22 11:44:10;;;;;;;;;;;;;;;;;;4934742;28;19927;-83
2021/07/22 11:46:42;;;;;;;;;;;;;;;;;;4953979;28;20316;-83
2021/07/22 11:49:24;;;;;;;;;;;;;;;;;;4955474;28;19926;-83
2021/07/22 11:52:07;;;;;;;;;;;;;;;;;;4951367;28;19938;-83
2021/07/22 11:54:52;;;;;;;;;;;;;;;;;;4953687;28;20388;-83
2021/07/22 11:57:31;;;;;;;;;;;;;;;;;;4953969;28;19926;-83
2021/07/22 12:04:09;;;;;;;;;;;;;;;;;;4968301;28;20391;-82
2021/07/22 12:06:48;;;;;;;;;;;;;;;;;;4955118;28;19933;-83
2021/07/22 12:09:18;;;;;;;;;;;;;;;;;;4957836;28;19933;-83
2021/07/22 12:11:48;;;;;;;;;;;;;;;;;;4949002;28;19941;-83
2021/07/22 12:14:44;;;;;;;;;;;;;;;;;;4976286;28;19926;-83
2021/07/22 12:17:17;;;;;;;;;;;;;;;;;;4950692;28;19949;-82
2021/07/22 12:19:49;;;;;;;;;;;;;;;;;;4959009;28;20400;-83
2021/07/22 12:22:29;;;;;;;;;;;;;;;;;;4957301;28;19948;-83
2021/07/22 12:25:28;;;;;;;;;;;;;;;;;;4944973;28;19934;-83
2021/07/22 12:28:53;;;;;;;;;;;;;;;;;;4959369;28;19926;-83
2021/07/22 12:31:47;;;;;;;;;;;;;;;;;;4946852;28;19937;-83
2021/07/22 12:34:17;;;;;;;;;;;;;;;;;;4944892;28;19935;-83
2021/07/22 12:36:54;;;;;;;;;;;;;;;;;;4951665;28;19933;-83
2021/07/22 12:39:27;;;;;;;;;;;;;;;;;;4954298;28;19926;-83
2021/07/22 12:41:55;;;;;;;;;;;;;;;;;;4941616;28;19933;-83
2021/07/22 12:44:42;;;;;;;;;;;;;;;;;;4951227;28;19930;-83
2021/07/22 12:47:30;;;;;;;;;;;;;;;;;;4947393;28;19934;-83
2021/07/22 12:54:59;;;;;;;;;;;;;;;;;;4932273;28;19926;-84
2021/07/22 12:57:37;;;;;;;;;;;;;;;;;;4955475;28;19930;-84
2021/07/22 13:00:42;;;;;;;;;;;;;;;;;;4957200;28;19926;-84
2021/07/22 13:03:19;;;;;;;;;;;;;;;;;;4944200;28;19926;-83
2021/07/22 13:05:48;;;;;;;;;;;;;;;;;;4950959;28;19934;-83
2021/07/22 13:08:17;;;;;;;;;;;;;;;;;;4950568;28;19926;-83
2021/07/22 13:10:48;;;;;;;;;;;;;;;;;;4953718;28;19930;-82
2021/07/22 13:13:17;;;;;;;;;;;;;;;;;;4949324;28;19926;-83
2021/07/22 13:15:45;;;;;;;;;;;;;;;;;;4944655;28;19934;-83
2021/07/22 13:22:42;;;;;;;;;;;;;;;;;;4897695;28;19937;-83
2021/07/22 13:25:28;;;;;;;;;;;;;;;;;;4952572;28;20010;-83
2021/07/22 13:27:56;;;;;;;;;;;;;;;;;;4930717;28;19926;-82
2021/07/22 13:30:24;;;;;;;;;;;;;;;;;;4935423;28;19926;-83
2021/07/22 13:32:55;;;;;;;;;;;;;;;;;;4930860;28;19927;-82
2021/07/22 13:35:30;;;;;;;;;;;;;;;;;;4937224;28;19934;-83
2021/07/22 13:38:00;;;;;;;;;;;;;;;;;;4937384;28;20427;-83
2021/07/22 13:40:29;;;;;;;;;;;;;;;;;;4955929;28;20281;-83
2021/07/22 13:42:58;;;;;;;;;;;;;;;;;;4946819;28;19934;-84
2021/07/22 13:45:26;;;;;;;;;;;;;;;;;;4932980;28;20305;-82
2021/07/22 13:47:55;;;;;;;;;;;;;;;;;;4944817;28;19934;-81
2021/07/22 13:50:23;;;;;;;;;;;;;;;;;;4959305;28;19927;-81
2021/07/22 13:52:51;;;;;;;;;;;;;;;;;;4941836;28;19953;-81
2021/07/22 13:55:21;;;;;;;;;;;;;;;;;;4945871;28;19933;-82
2021/07/22 13:57:49;;;;;;;;;;;;;;;;;;4956112;28;20319;-81
2021/07/22 14:00:18;;;;;;;;;;;;;;;;;;4951754;28;20399;-82
2021/07/22 14:02:47;;;;;;;;;;;;;;;;;;4950073;28;19937;-82
2021/07/22 14:05:15;;;;;;;;;;;;;;;;;;4965836;28;19927;-82
2021/07/22 14:07:44;;;;;;;;;;;;;;;;;;4941220;29;19932;-82
2021/07/22 14:10:12;;;;;;;;;;;;;;;;;;4951490;28;19926;-82
2021/07/22 14:12:44;;;;;;;;;;;;;;;;;;4950505;28;19926;-82
2021/07/22 14:15:12;;;;;;;;;;;;;;;;;;4961527;28;20393;-82
2021/07/22 14:17:41;;;;;;;;;;;;;;;;;;4935220;28;19926;-82
2021/07/22 14:20:09;;;;;;;;;;;;;;;;;;4953136;28;19953;-82
2021/07/22 14:22:38;;;;;;;;;;;;;;;;;;4943378;28;19926;-82
2021/07/22 14:25:07;;;;;;;;;;;;;;;;;;4962897;28;19930;-81
2021/07/22 14:27:35;;;;;;;;;;;;;;;;;;4937481;28;19930;-82
2021/07/22 14:30:09;;;;;;;;;;;;;;;;;;4951273;28;19941;-82
2021/07/22 14:32:38;;;;;;;;;;;;;;;;;;4929344;28;19941;-81
2021/07/22 14:35:07;;;;;;;;;;;;;;;;;;4937676;28;19926;-82
2021/07/22 14:37:35;;;;;;;;;;;;;;;;;;4931792;28;19941;-82
2021/07/22 14:40:05;;;;;;;;;;;;;;;;;;4948440;28;20388;-81
2021/07/22 14:42:33;;;;;;;;;;;;;;;;;;4944857;28;19934;-80
2021/07/22 14:45:01;;;;;;;;;;;;;;;;;;4970234;28;20023;-81
2021/07/22 14:47:35;;;;;;;;;;;;;;;;;;4954585;28;19926;-81
2021/07/22 14:50:04;;;;;;;;;;;;;;;;;;4940933;28;20308;-80
2021/07/22 14:52:32;;;;;;;;;;;;;;;;;;4954054;28;19940;-81
2021/07/22 14:55:01;;;;;;;;;;;;;;;;;;4953883;28;19926;-83
2021/07/22 14:57:29;;;;;;;;;;;;;;;;;;4936801;28;19926;-80
2021/07/22 14:59:57;;;;;;;;;;;;;;;;;;4937304;28;19926;-80
2021/07/22 15:02:25;;;;;;;;;;;;;;;;;;4950460;28;20280;-81
2021/07/22 15:04:56;;;;;;;;;;;;;;;;;;4937451;28;19934;-79
2021/07/22 15:07:25;;;;;;;;;;;;;;;;;;4952469;28;19926;-81
2021/07/22 15:09:53;;;;;;;;;;;;;;;;;;4941050;28;20392;-82
2021/07/22 15:12:21;;;;;;;;;;;;;;;;;;4958793;28;19926;-81
2021/07/22 15:14:50;;;;;;;;;;;;;;;;;;4960972;28;19934;-82
2021/07/22 15:17:19;;;;;;;;;;;;;;;;;;4951897;28;21127;-82
2021/07/22 15:19:48;;;;;;;;;;;;;;;;;;4937402;28;19926;-82
2021/07/22 15:22:17;;;;;;;;;;;;;;;;;;4937367;28;19930;-82
2021/07/22 15:24:46;;;;;;;;;;;;;;;;;;4959326;28;19934;-82
2021/07/22 15:27:14;;;;;;;;;;;;;;;;;;4959899;28;19926;-81
2021/07/22 15:29:43;;;;;;;;;;;;;;;;;;4967620;28;19936;-81
2021/07/22 15:32:11;;;;;;;;;;;;;;;;;;4966868;28;19933;-80
2021/07/22 15:34:44;;;;;;;;;;;;;;;;;;4985454;28;19933;-82
2021/07/22 15:37:12;;;;;;;;;;;;;;;;;;4969041;28;20487;-82
2021/07/22 15:39:43;;;;;;;;;;;;;;;;;;4938341;28;19937;-84
2021/07/22 15:42:12;;;;;;;;;;;;;;;;;;4930808;28;19926;-81
2021/07/22 15:44:44;;;;;;;;;;;;;;;;;;4955073;28;20415;-81
2021/07/22 15:47:13;;;;;;;;;;;;;;;;;;4951482;28;19933;-82
2021/07/22 15:49:43;;;;;;;;;;;;;;;;;;4951289;28;19929;-81
2021/07/22 15:52:13;;;;;;;;;;;;;;;;;;4949184;28;19930;-81
2021/07/22 15:54:43;;;;;;;;;;;;;;;;;;4931112;28;19936;-82
2021/07/22 15:57:11;;;;;;;;;;;;;;;;;;4951708;28;20393;-82
2021/07/22 15:59:40;;;;;;;;;;;;;;;;;;4948190;28;19939;-82
2021/07/22 16:02:20;;;;;;;;;;;;;;;;;;4951396;28;19926;-81
2021/07/22 16:04:52;;;;;;;;;;;;;;;;;;4933113;28;19926;-82
2021/07/22 16:07:20;;;;;;;;;;;;;;;;;;4950086;28;19934;-81
2021/07/22 16:09:50;;;;;;;;;;;;;;;;;;4958067;28;19933;-81
2021/07/22 16:12:18;;;;;;;;;;;;;;;;;;4951667;28;20305;-81
2021/07/22 16:14:47;;;;;;;;;;;;;;;;;;4952827;28;19930;-81
2021/07/22 16:17:15;;;;;;;;;;;;;;;;;;4953328;28;19930;-81
2021/07/22 16:19:43;;;;;;;;;;;;;;;;;;4964109;28;19929;-81
2021/07/22 16:22:11;;;;;;;;;;;;;;;;;;4963505;28;19934;-81
2021/07/22 16:24:40;;;;;;;;;;;;;;;;;;4936643;28;19933;-82
2021/07/22 16:27:10;;;;;;;;;;;;;;;;;;4949578;28;19927;-81
2021/07/22 16:29:39;;;;;;;;;;;;;;;;;;4947244;28;19937;-81
2021/07/22 16:32:08;;;;;;;;;;;;;;;;;;4954078;28;19926;-81
2021/07/22 16:34:36;;;;;;;;;;;;;;;;;;4946172;28;20352;-81
2021/07/22 16:37:05;;;;;;;;;;;;;;;;;;4979361;28;19924;-81
2021/07/22 16:39:33;;;;;;;;;;;;;;;;;;4962272;28;20110;-80
2021/07/22 16:42:02;;;;;;;;;;;;;;;;;;4973331;28;19932;-81
2021/07/22 16:44:32;;;;;;;;;;;;;;;;;;4939295;28;20396;-82
2021/07/22 16:47:00;;;;;;;;;;;;;;;;;;4957806;28;19930;-82
2021/07/22 16:49:30;;;;;;;;;;;;;;;;;;4971731;28;19934;-81
2021/07/22 16:51:58;;;;;;;;;;;;;;;;;;4970776;28;19929;-80
2021/07/22 16:54:27;;;;;;;;;;;;;;;;;;4972511;28;19915;-80
2021/07/22 16:56:55;;;;;;;;;;;;;;;;;;4970338;28;19922;-80
2021/07/22 16:59:24;;;;;;;;;;;;;;;;;;4992505;28;19924;-80
2021/07/22 17:01:53;;;;;;;;;;;;;;;;;;4982078;28;19926;-81
2021/07/22 17:04:22;;;;;;;;;;;;;;;;;;4950756;28;19934;-81
2021/07/22 17:06:51;;;;;;;;;;;;;;;;;;4950894;28;19930;-81
2021/07/22 17:09:36;;;;;;;;;;;;;;;;;;4938515;28;19934;-81
2021/07/22 17:12:06;;;;;;;;;;;;;;;;;;4945954;28;19937;-81
2021/07/22 17:14:34;;;;;;;;;;;;;;;;;;4939586;28;19926;-81
2021/07/22 17:17:04;;;;;;;;;;;;;;;;;;4969119;28;19926;-81
2021/07/22 17:19:32;;;;;;;;;;;;;;;;;;4953876;28;19944;-81
2021/07/22 17:22:00;;;;;;;;;;;;;;;;;;4968152;28;19930;-81
2021/07/22 17:24:31;;;;;;;;;;;;;;;;;;4952384;28;19941;-81
2021/07/22 17:26:59;;;;;;;;;;;;;;;;;;4959335;28;19933;-79
2021/07/22 17:29:27;;;;;;;;;;;;;;;;;;4951173;28;19933;-79
2021/07/22 17:31:55;;;;;;;;;;;;;;;;;;4967824;28;19995;-79
2021/07/22 17:34:25;;;;;;;;;;;;;;;;;;4962225;28;19957;-79
2021/07/22 17:36:53;;;;;;;;;;;;;;;;;;4937841;28;20007;-79
2021/07/22 17:39:22;;;;;;;;;;;;;;;;;;4952553;28;20000;-79
2021/07/22 17:41:50;;;;;;;;;;;;;;;;;;4936864;28;19934;-79
2021/07/22 17:44:20;;;;;;;;;;;;;;;;;;4946032;28;20225;-79
2021/07/22 17:46:48;;;;;;;;;;;;;;;;;;4939066;28;19930;-79
2021/07/22 17:49:17;;;;;;;;;;;;;;;;;;4966612;28;19933;-81
2021/07/22 17:51:46;;;;;;;;;;;;;;;;;;4950697;28;19926;-81
2021/07/22 17:54:14;;;;;;;;;;;;;;;;;;4954807;28;19949;-81
2021/07/22 17:56:43;;;;;;;;;;;;;;;;;;4949271;28;20542;-81